L'Isle-Verte, Canada
Current Conditions -  °F | °C
As of 8:00 PM on Friday 24 Oct 2014 (Local Time) from CYYY Reporting Station
Overcast Overcast  
Wind Chill: 35°   Ceiling: 10000
Heat Index: 39°   Visibility: 30mi
Dew Point: 32°   Wind: 6mph
Humidity: 75%   Direction: 310°NW
Pressure: 29.76"   Gusts: NA
Location:  48.02°N, 69.33°W
Report Text: CYYY 250000Z 31005KT 30SM OVC100 04/00 A2976 RMK AC8 SLP081
Loading
Personal Weather Stations






























Interactive Weather Map
Tropical Storm Tracking
New forecast layout! Learn more

10-Day Weather Forecast

Advertisements
Track Severe Weather on mobile